Home > Products > Valid Products > MTR

000
SAUS43 KABR 271157
MTR8D3
METAR K8D3 271156Z AUTO 21003KT M01/M04 A3020 RMK AO1 SLP231
T10061039 10044 21011 53005





000
SAUS43 KABR 271057
MTR8D3
METAR K8D3 271056Z AUTO 23004KT 00/M04 A3019 RMK AO1 SLP229
T00001039





000
SAUS43 KABR 271057
MTR8D3
METAR K8D3 271056Z AUTO 23004KT 00/M04 A3019 RMK AO1 SLP229
T00001039





000
SAUS43 KABR 270957
MTR8D3
METAR K8D3 270956Z AUTO 30003KT 01/M04 A3018 RMK AO1 SLP224
T00061039





000
SAUS43 KABR 270858
MTR8D3
METAR K8D3 270856Z AUTO 00000KT 03/M03 A3018 RMK AO1 SLP223
T00331028 50007





000
SAUS43 KABR 270757
MTR8D3
METAR K8D3 270756Z AUTO 00000KT 02/M03 A3018 RMK AO1 SLP225
T00221033





000
SAUS43 KABR 270657
MTR8D3
METAR K8D3 270656Z AUTO 27004KT 02/M03 A3018 RMK AO1 SLP223
T00221028





000
SAUS43 KABR 270557
MTR8D3
METAR K8D3 270556Z AUTO 24003KT 04/M01 A3016 RMK AO1 SLP217
T00391011 10178 20017 401940000 51012





000
SAUS43 KABR 270457
MTR8D3
METAR K8D3 270456Z AUTO 00000KT 03/M02 A3015 RMK AO1 SLP216
T00331022





000
SAUS43 KABR 270357
MTR8D3
METAR K8D3 270356Z AUTO 00000KT 06/M02 A3014 RMK AO1 SLP213
T00611017





000
SAUS43 KABR 270258
MTR8D3
METAR K8D3 270256Z AUTO 14004KT 10/M03 A3012 RMK AO1 SLP205
T01001028 53014





000
SAUS43 KABR 270258
MTR8D3
METAR K8D3 270256Z AUTO 14004KT 10/M03 A3012 RMK AO1 SLP205
T01001028 53014





000
SAUS43 KABR 270157
MTR8D3
METAR K8D3 270156Z AUTO 12005KT 12/M03 A3010 RMK AO1 SLP198
T01171033





000
SAUS43 KABR 270157
MTR8D3
METAR K8D3 270156Z AUTO 12005KT 12/M03 A3010 RMK AO1 SLP198
T01171033





000
SAUS43 KABR 270057
MTR8D3
METAR K8D3 270056Z AUTO 10006KT 16/M03 A3009 RMK AO1 SLP193
T01561033





000
SAUS43 KABR 270057
MTR8D3
METAR K8D3 270056Z AUTO 10006KT 16/M03 A3009 RMK AO1 SLP193
T01561033





000
SAUS43 KABR 262357
MTR8D3
METAR K8D3 262356Z AUTO 09006KT 18/M03 A3008 RMK AO1 SLP192
T01781033 10194 20156 55001





000
SAUS43 KABR 262357
MTR8D3
METAR K8D3 262356Z AUTO 09006KT 18/M03 A3008 RMK AO1 SLP192
T01781033 10194 20156 55001





000
SAUS43 KABR 262257
MTR8D3
METAR K8D3 262256Z AUTO 12008KT 18/M03 A3008 RMK AO1 SLP188
T01831033





000
SAUS43 KABR 262257
MTR8D3
METAR K8D3 262256Z AUTO 12008KT 18/M03 A3008 RMK AO1 SLP188
T01831033





000
SAUS43 KABR 262157
MTR8D3
METAR K8D3 262156Z AUTO 13008KT 19/M03 A3008 RMK AO1 SLP188
T01891033





000
SAUS43 KABR 262157
MTR8D3
METAR K8D3 262156Z AUTO 13008KT 19/M03 A3008 RMK AO1 SLP188
T01891033





000
SAUS43 KABR 262058
MTR8D3
METAR K8D3 262056Z AUTO VRB05KT 18/M02 A3009 RMK AO1 SLP191
T01781017 58007





000
SAUS43 KABR 261957
MTR8D3
METAR K8D3 261956Z AUTO VRB05KT 17/M01 A3010 RMK AO1 SLP193
T01721011





000
SAUS43 KABR 261857
MTR8D3
METAR K8D3 261856Z AUTO 16004KT 17/M02 A3010 RMK AO1 SLP196
T01671022





000
SAUS43 KABR 261857
MTR8D3
METAR K8D3 261856Z AUTO 16004KT 17/M02 A3010 RMK AO1 SLP196
T01671022





000
SAUS43 KABR 261757
MTR8D3
METAR K8D3 261756Z AUTO 15011KT 16/M03 A3011 RMK AO1 SLP196
T01611028 10161 20000 50004





000
SAUS43 KABR 261757
MTR8D3
METAR K8D3 261756Z AUTO 15011KT 16/M03 A3011 RMK AO1 SLP196
T01611028 10161 20000 50004





000
SAUS43 KABR 261658
MTR8D3
METAR K8D3 261656Z AUTO 14/00 A3011 RMK AO1 SLP199 T01440000





000
SAUS43 KABR 261658
MTR8D3
METAR K8D3 261656Z AUTO 14/00 A3011 RMK AO1 SLP199 T01440000





000
SAUS43 KABR 261557
MTR8D3
METAR K8D3 261556Z AUTO 19005KT 12/01 A3011 RMK AO1 SLP198 T01170006





000
SAUS43 KABR 261557
MTR8D3
METAR K8D3 261556Z AUTO 19005KT 12/01 A3011 RMK AO1 SLP198 T01170006





000
SAUS43 KABR 261457
MTR8D3
METAR K8D3 261456Z AUTO VRB05KT 09/01 A3010 RMK AO1 SLP195 T00890006
53006





000
SAUS43 KABR 261357
MTR8D3
METAR K8D3 261356Z AUTO 17008KT 07/01 A3009 RMK AO1 SLP193 T00720006





000
SAUS43 KABR 261257
MTR8D3
METAR K8D3 261256Z AUTO 15005KT 04/02 A3008 RMK AO1 SLP191 T00390017





000
SAUS43 KABR 261257
MTR8D3
METAR K8D3 261256Z AUTO 15005KT 04/02 A3008 RMK AO1 SLP191 T00390017





000
SAUS43 KABR 261157
MTR8D3
METAR K8D3 261156Z AUTO 16005KT 00/M01 A3008 RMK AO1 SLP194
T00001006 10061 20000 53019





000
SAUS43 KABR 261157
MTR8D3
METAR K8D3 261156Z AUTO 16005KT 00/M01 A3008 RMK AO1 SLP194
T00001006 10061 20000 53019





000
SAUS43 KABR 261057
MTR8D3
METAR K8D3 261056Z AUTO 15006KT 01/M01 A3005 RMK AO1 SLP185
T00061011





000
SAUS43 KABR 261057
MTR8D3
METAR K8D3 261056Z AUTO 15006KT 01/M01 A3005 RMK AO1 SLP185
T00061011





000
SAUS43 KABR 260957
MTR8D3
METAR K8D3 260956Z AUTO 17005KT 01/M01 A3003 RMK AO1 SLP177
T00111006





000
SAUS43 KABR 260857
MTR8D3
METAR K8D3 260856Z AUTO 00000KT 02/00 A3002 RMK AO1 SLP174 T00170000
51010





000
SAUS43 KABR 260857
MTR8D3
METAR K8D3 260856Z AUTO 00000KT 02/00 A3002 RMK AO1 SLP174 T00170000
51010





000
SAUS43 KABR 260757
MTR8D3
METAR K8D3 260756Z AUTO 15004KT 05/01 A3001 RMK AO1 SLP171 T00500011





000
SAUS43 KABR 260657
MTR8D3
METAR K8D3 260656Z AUTO 23006KT 04/02 A3001 RMK AO1 SLP170 T00390022





000
SAUS43 KABR 260657
MTR8D3
METAR K8D3 260656Z AUTO 23006KT 04/02 A3001 RMK AO1 SLP170 T00390022





000
SAUS43 KABR 260557
MTR8D3
METAR K8D3 260556Z AUTO 00000KT 06/04 A2999 RMK AO1 SLP163 T00560044
10133 20050 401330050 53013





000
SAUS43 KABR 260557
MTR8D3
METAR K8D3 260556Z AUTO 00000KT 06/04 A2999 RMK AO1 SLP163 T00560044
10133 20050 401330050 53013





000
SAUS43 KABR 260457
MTR8D3
METAR K8D3 260456Z AUTO 00000KT 06/04 A2996 RMK AO1 SLP155 T00610044





000
SAUS43 KABR 260357
MTR8D3
METAR K8D3 260356Z AUTO 11003KT 09/06 A2995 RMK AO1 SLP148 T00890056





000
SAUS43 KABR 260257
MTR8D3
METAR K8D3 260256Z AUTO 00000KT 10/07 A2995 RMK AO1 SLP146 T01000067
53020





000
SAUS43 KABR 260257
MTR8D3
METAR K8D3 260256Z AUTO 00000KT 10/07 A2995 RMK AO1 SLP146 T01000067
53020





000
SAUS43 KABR 260157
MTR8D3
METAR K8D3 260156Z AUTO 00000KT 11/06 A2992 RMK AO1 SLP139 T01060061





000
SAUS43 KABR 260157
MTR8D3
METAR K8D3 260156Z AUTO 00000KT 11/06 A2992 RMK AO1 SLP139 T01060061





000
SAUS43 KABR 260057
MTR8D3
METAR K8D3 260056Z AUTO 17004KT 12/06 A2990 RMK AO1 SLP129 T01220061





000
SAUS43 KABR 252357
MTR8D3
METAR K8D3 252356Z AUTO 13008KT 13/06 A2988 RMK AO1 SLP122 T01330056
10133 20067 53006





000
SAUS43 KABR 252357
MTR8D3
METAR K8D3 252356Z AUTO 13008KT 13/06 A2988 RMK AO1 SLP122 T01330056
10133 20067 53006





000
SAUS43 KABR 252257
MTR8D3
METAR K8D3 252256Z AUTO 13007KT 12/06 A2987 RMK AO1 SLP119 T01220061





000
SAUS43 KABR 252158
MTR8D3
METAR K8D3 252156Z AUTO 13007KT 12/06 A2987 RMK AO1 SLP119 T01170061





000
SAUS43 KABR 252158
MTR8D3
METAR K8D3 252156Z AUTO 13007KT 12/06 A2987 RMK AO1 SLP119 T01170061





000
SAUS43 KABR 252057
MTR8D3
METAR K8D3 252056Z AUTO 12008KT 09/06 A2986 RMK AO1 SLP119 T00940056
51002





000
SAUS43 KABR 251957
MTR8D3
METAR K8D3 251956Z AUTO 11008KT 08/06 A2986 RMK AO1 SLP120 T00830056





000
SAUS43 KABR 251857
MTR8D3
METAR K8D3 251856Z AUTO 12010KT 07/06 A2986 RMK AO1 SLP119 T00720056





000
SAUS43 KABR 251857
MTR8D3
METAR K8D3 251856Z AUTO 12010KT 07/06 A2986 RMK AO1 SLP119 T00720056





000
SAUS43 KABR 251757
MTR8D3
METAR K8D3 251756Z AUTO 12009KT 07/06 A2986 RMK AO1 SLP118 T00720061
10072 20061 51013





000
SAUS43 KABR 251657
MTR8D3
METAR K8D3 251656Z AUTO 12009KT 07/06 A2985 RMK AO1 SLP117 T00670061





000
SAUS43 KABR 251557
MTR8D3
METAR K8D3 251556Z AUTO 13011KT 06/06 A2984 RMK AO1 SLP113 T00610061





000
SAUS43 KABR 251457
MTR8D3
METAR K8D3 251456Z AUTO 14012KT 06/06 A2982 RMK AO1 SLP104 T00610056
51017





000
SAUS43 KABR 251357
MTR8D3
METAR K8D3 251356Z AUTO 13011KT 06/06 A2980 RMK AO1 SLP098 T00610061





000
SAUS43 KABR 251357
MTR8D3
METAR K8D3 251356Z AUTO 13011KT 06/06 A2980 RMK AO1 SLP098 T00610061





000
SAUS43 KABR 251258
MTR8D3
METAR K8D3 251256Z AUTO 12010KT 06/06 A2978 RMK AO1 SLP090 T00610061





000
SAUS43 KABR 251157
MTR8D3
METAR K8D3 251156Z AUTO 12009KT 06/06 A2977 RMK AO1 SLP084 T00610061
10067 20061 53015





000
SAUS43 KABR 251157
MTR8D3
METAR K8D3 251156Z AUTO 12009KT 06/06 A2977 RMK AO1 SLP084 T00610061
10067 20061 53015





000
SAUS43 KABR 251057
MTR8D3
METAR K8D3 251056Z AUTO 13010KT 06/06 A2975 RMK AO1 SLP075 T00610056





000
SAUS43 KABR 251057
MTR8D3
METAR K8D3 251056Z AUTO 13010KT 06/06 A2975 RMK AO1 SLP075 T00610056





000
SAUS43 KABR 250958
MTR8D3
METAR K8D3 250956Z AUTO 13011KT 06/06 A2973 RMK AO1 SLP070 T00610056





000
SAUS43 KABR 250857
MTR8D3
METAR K8D3 250856Z AUTO 13012KT 06/06 A2972 RMK AO1 SLP065 T00610056
53000





000
SAUS43 KABR 250757
MTR8D3
METAR K8D3 250756Z AUTO 13013KT 06/06 A2972 RMK AO1 SLP065 T00610056





000
SAUS43 KABR 250757
MTR8D3
METAR K8D3 250756Z AUTO 13013KT 06/06 A2972 RMK AO1 SLP065 T00610056





000
SAUS43 KABR 250657
MTR8D3
METAR K8D3 250656Z AUTO 13013KT 07/06 A2972 RMK AO1 SLP065 T00670056





000
SAUS43 KABR 250657
MTR8D3
METAR K8D3 250656Z AUTO 13013KT 07/06 A2972 RMK AO1 SLP065 T00670056





000
SAUS43 KABR 250558
MTR8D3
METAR K8D3 250556Z AUTO 13015KT 07/06 A2972 RMK AO1 SLP067 T00670061
10117 20067 401610044 50006





000
SAUS43 KABR 250558
MTR8D3
METAR K8D3 250556Z AUTO 13015KT 07/06 A2972 RMK AO1 SLP067 T00670061
10117 20067 401610044 50006





000
SAUS43 KABR 250457
MTR8D3
METAR K8D3 250456Z AUTO 13014KT 07/06 A2973 RMK AO1 SLP071 T00720061





000
SAUS43 KABR 250457
MTR8D3
METAR K8D3 250456Z AUTO 13014KT 07/06 A2973 RMK AO1 SLP071 T00720061





000
SAUS43 KABR 250357
MTR8D3
METAR K8D3 250356Z AUTO 13016KT 07/06 A2971 RMK AO1 SLP067 T00720061





000
SAUS43 KABR 250258
MTR8D3
METAR K8D3 250256Z AUTO 12013KT 08/06 A2970 RMK AO1 SLP063 T00780061
53018





000
SAUS43 KABR 250258
MTR8D3
METAR K8D3 250256Z AUTO 12013KT 08/06 A2970 RMK AO1 SLP063 T00780061
53018





000
SAUS43 KABR 250157
MTR8D3
METAR K8D3 250156Z AUTO 12018KT 09/06 A2967 RMK AO1 SLP054 T00890061





000
SAUS43 KABR 250157
MTR8D3
METAR K8D3 250156Z AUTO 12018KT 09/06 A2967 RMK AO1 SLP054 T00890061





000
SAUS43 KABR 250057
MTR8D3
METAR K8D3 250056Z AUTO 13016KT 10/07 A2966 RMK AO1 SLP048 T01000067





000
SAUS43 KABR 242357
MTR8D3
METAR K8D3 242356Z AUTO 14016KT 12/07 A2965 RMK AO1 SLP044 T01170067
10161 20117 53006





000
SAUS43 KABR 242357
MTR8D3
METAR K8D3 242356Z AUTO 14016KT 12/07 A2965 RMK AO1 SLP044 T01170067
10161 20117 53006





000
SAUS43 KABR 242257
MTR8D3
METAR K8D3 242256Z AUTO 13017KT 13/07 A2964 RMK AO1 SLP040 T01330067





000
SAUS43 KABR 242157
MTR8D3
METAR K8D3 242156Z AUTO 12016KT 14/08 A2963 RMK AO1 SLP037 T01390078





000
SAUS43 KABR 242157
MTR8D3
METAR K8D3 242156Z AUTO 12016KT 14/08 A2963 RMK AO1 SLP037 T01390078





000
SAUS43 KABR 242057
MTR8D3
METAR K8D3 242056Z AUTO 14013G22KT 15/08 A2963 RMK AO1 SLP034
T01500078 56012





000
SAUS43 KABR 241957
MTR8D3
METAR K8D3 241956Z AUTO 14016KT 14/08 A2963 RMK AO1 SLP035 T01440083





000
SAUS43 KABR 241857
MTR8D3
METAR K8D3 241856Z AUTO 15018G22KT 14/09 A2965 RMK AO1 SLP042
T01390089





000
SAUS43 KABR 241757
MTR8D3
METAR K8D3 241756Z AUTO 16017KT 12/08 A2966 RMK AO1 SLP047 T01170078
10122 20050 58014





000
SAUS43 KABR 241757
MTR8D3
METAR K8D3 241756Z AUTO 16017KT 12/08 A2966 RMK AO1 SLP047 T01170078
10122 20050 58014





000
SAUS43 KABR 241657
MTR8D3
METAR K8D3 241656Z AUTO 15017KT 09/06 A2968 RMK AO1 SLP054 T00940056





000
SAUS43 KABR 241557
MTR8D3
METAR K8D3 241556Z AUTO 14017G25KT 09/06 A2969 RMK AO1 SLP059
T00890056





000
SAUS43 KABR 241457
MTR8D3
METAR K8D3 241456Z AUTO 15013KT 07/04 A2970 RMK AO1 SLP063 T00720044
58005





000
SAUS43 KABR 241457
MTR8D3
METAR K8D3 241456Z AUTO 15013KT 07/04 A2970 RMK AO1 SLP063 T00720044
58005





000
SAUS43 KABR 241357
MTR8D3
METAR K8D3 241356Z AUTO 16009KT 06/03 A2971 RMK AO1 SLP067 T00610033





000
SAUS43 KABR 241357
MTR8D3
METAR K8D3 241356Z AUTO 16009KT 06/03 A2971 RMK AO1 SLP067 T00610033





000
SAUS43 KABR 241257
MTR8D3
METAR K8D3 241256Z AUTO 14012G19KT 06/02 A2972 RMK AO1 SLP067
T00610022





000
SAUS43 KABR 241257
MTR8D3
METAR K8D3 241256Z AUTO 14012G19KT 06/02 A2972 RMK AO1 SLP067
T00610022





    US Dept of Commerce
    National Oceanic and Atmospheric Administration
    National Weather Service
    1325 East West Highway
    Silver Spring, MD 20910
    Page Author: NWS Internet Services Team
Disclaimer
Information Quality
Credits
Glossary
Privacy Policy
Freedom of Information Act (FOIA)
About Us
Career Opportunities